Time;durP1;ratioP1;P1;durP2;ratioP2;P2;SDS_P1;SDS_P2;PMS_P1;PMS_P2;Temp;Humidity;BMP_temperature;BMP_pressure;BME280_temperature;BME280_humidity;BME280_pressure;Samples;Min_cycle;Max_cycle;Signal;HPM_P1;HPM_P2
2021/08/19 00:00:34;;;;;;;10.40;7.90;;;;;;;24.72;56.48;100020.44;117455;1183;22929;-69
2021/08/19 00:03:03;;;;;;;9.30;8.10;;;;;;;24.71;56.48;100014.55;117491;1182;21855;-61
2021/08/19 00:05:33;;;;;;;10.10;7.70;;;;;;;24.71;56.43;100012.40;117582;1176;21861;-69
2021/08/19 00:08:12;;;;;;;9.10;7.50;;;;;;;24.69;56.54;100017.41;117338;1186;23533;-62
2021/08/19 00:10:40;;;;;;;10.00;7.40;;;;;;;24.69;56.62;100025.67;117374;1182;21851;-69
2021/08/19 00:13:28;;;;;;;8.40;7.10;;;;;;;24.67;56.62;100030.66;117366;1180;22936;-72
2021/08/19 00:16:00;;;;;;;10.30;8.20;;;;;;;24.65;56.71;100030.60;117377;1185;23490;-72
2021/08/19 00:18:30;;;;;;;9.30;8.10;;;;;;;24.63;56.80;100032.77;117331;1183;24164;-63
2021/08/19 00:20:58;;;;;;;10.90;8.40;;;;;;;24.60;57.02;100034.77;117282;1182;22873;-70
2021/08/19 00:23:26;;;;;;;10.00;8.20;;;;;;;24.57;57.17;100041.09;117345;1185;21856;-71
2021/08/19 00:26:14;;;;;;;10.30;8.90;;;;;;;24.55;57.20;100044.13;117301;1185;22639;-70
2021/08/19 00:28:46;;;;;;;10.50;8.80;;;;;;;24.53;57.43;100041.02;117447;1182;23474;-72
2021/08/19 00:31:14;;;;;;;11.20;9.20;;;;;;;24.51;57.57;100043.15;117456;1182;21851;-61
2021/08/19 00:33:43;;;;;;;13.90;9.20;;;;;;;24.50;57.70;100041.46;117369;1181;23506;-61
2021/08/19 00:36:11;;;;;;;17.80;10.20;;;;;;;24.49;57.73;100038.45;117449;1185;22106;-69
2021/08/19 00:38:39;;;;;;;12.10;9.80;;;;;;;24.47;57.77;100042.73;117391;1185;21849;-68
2021/08/19 00:41:27;;;;;;;11.10;9.70;;;;;;;24.45;57.97;100047.92;117426;1181;24226;-68
2021/08/19 00:43:58;;;;;;;12.20;9.60;;;;;;;24.44;58.02;100049.27;117294;1185;21867;-71
2021/08/19 00:46:30;;;;;;;11.50;9.70;;;;;;;24.43;58.35;100045.58;117346;1185;22005;-60
2021/08/19 00:49:10;;;;;;;11.80;9.80;;;;;;;24.41;58.47;100042.33;117444;1182;24181;-61
2021/08/19 00:51:42;;;;;;;14.70;10.40;;;;;;;24.40;58.37;100045.27;117491;1181;21871;-67
2021/08/19 00:54:11;;;;;;;12.70;9.40;;;;;;;24.38;58.56;100043.92;117473;1180;22945;-68
2021/08/19 00:56:40;;;;;;;16.10;10.30;;;;;;;24.37;58.46;100042.61;117429;1185;21857;-66
2021/08/19 00:59:32;;;;;;;12.40;9.60;;;;;;;24.34;58.57;100045.13;117380;1184;23448;-69
2021/08/19 01:02:02;;;;;;;10.50;8.40;;;;;;;24.32;58.44;100056.03;117337;1185;22641;-60
2021/08/19 01:04:50;;;;;;;10.90;9.30;;;;;;;24.29;58.64;100068.86;117337;1184;21855;-69
2021/08/19 01:07:18;;;;;;;10.20;9.10;;;;;;;24.25;58.58;100063.57;117410;1185;24159;-68
2021/08/19 01:09:48;;;;;;;12.00;9.70;;;;;;;24.23;58.71;100058.89;117334;1179;23485;-62
2021/08/19 01:12:19;;;;;;;;;;;;;;;24.22;58.63;100061.30;117420;1176;21841;-68
2021/08/19 01:15:09;;;;;;;10.50;8.10;;;;;;;24.21;58.60;100065.48;117444;1184;22909;-63
2021/08/19 01:17:39;;;;;;;11.20;8.50;;;;;;;24.19;58.83;100069.23;117429;1185;21873;-60
2021/08/19 01:20:08;;;;;;;10.00;7.80;;;;;;;24.17;58.85;100071.52;117500;1182;23471;-62
2021/08/19 01:22:36;;;;;;;10.10;8.20;;;;;;;24.16;58.85;100077.16;117407;1183;24173;-62
2021/08/19 01:25:05;;;;;;;8.80;7.80;;;;;;;24.14;58.87;100079.97;117328;1182;23450;-61
2021/08/19 01:27:54;;;;;;;10.30;8.20;;;;;;;24.14;58.79;100082.47;117349;1185;22758;-69
2021/08/19 01:30:23;;;;;;;10.50;7.80;;;;;;;24.14;58.83;100092.86;117367;1185;21857;-68
2021/08/19 01:32:51;;;;;;;11.10;8.00;;;;;;;24.13;59.03;100097.81;117342;1188;22060;-69
2021/08/19 01:35:32;;;;;;;9.90;7.70;;;;;;;24.11;59.21;100097.77;117320;1184;23488;-67
2021/08/19 01:38:00;;;;;;;10.00;8.30;;;;;;;24.09;59.35;100098.27;117479;1182;21882;-68
2021/08/19 01:40:45;;;;;;;8.80;7.30;;;;;;;24.06;59.55;100092.77;117329;1181;23502;-67
2021/08/19 01:43:13;;;;;;;11.50;7.60;;;;;;;24.01;60.02;100074.48;117298;1182;23457;-60
2021/08/19 01:45:41;;;;;;;10.90;7.10;;;;;;;23.97;60.19;100046.08;117335;1182;22613;-62
2021/08/19 01:48:10;;;;;;;9.60;7.30;;;;;;;23.92;60.61;100048.94;117421;1185;23491;-63
2021/08/19 01:50:45;;;;;;;12.50;8.20;;;;;;;23.86;60.85;100069.64;117395;1184;23544;-68
2021/08/19 01:53:13;;;;;;;16.10;8.30;;;;;;;23.77;61.29;100080.45;117440;1182;23647;-66
2021/08/19 01:55:47;;;;;;;9.80;7.80;;;;;;;23.70;61.74;100074.88;117420;1185;21858;-70
2021/08/19 01:58:17;;;;;;;18.30;8.80;;;;;;;23.63;62.10;100072.51;117296;1183;21858;-66
2021/08/19 02:00:45;;;;;;;10.90;8.30;;;;;;;23.58;62.30;100069.64;117457;1185;23449;-67
2021/08/19 02:03:26;;;;;;;15.30;7.90;;;;;;;23.52;62.52;100069.16;117351;1180;23488;-68
2021/08/19 02:05:55;;;;;;;13.90;8.20;;;;;;;23.44;63.03;100071.20;117438;1184;21863;-68
2021/08/19 02:08:43;;;;;;;10.00;8.00;;;;;;;23.38;63.26;100068.23;117405;1180;22925;-66
2021/08/19 02:11:13;;;;;;;12.40;6.90;;;;;;;23.34;63.28;100059.93;117449;1185;23481;-68
2021/08/19 02:13:41;;;;;;;9.70;7.00;;;;;;;23.31;63.57;100053.14;117472;1183;21855;-67
2021/08/19 02:16:27;;;;;;;12.00;7.20;;;;;;;23.33;63.60;100053.56;117601;1183;24186;-65
2021/08/19 02:18:59;;;;;;;9.80;6.80;;;;;;;23.29;63.72;100058.29;117406;1182;23472;-71
2021/08/19 02:21:28;;;;;;;9.60;6.40;;;;;;;23.25;63.70;100061.96;117378;1183;21858;-70
2021/08/19 02:23:58;;;;;;;10.60;7.20;;;;;;;23.26;63.73;100065.67;117463;1185;21907;-64
2021/08/19 02:26:26;;;;;;;12.20;6.80;;;;;;;23.25;63.88;100064.84;117368;1185;23451;-68
2021/08/19 02:28:54;;;;;;;11.00;6.90;;;;;;;23.21;63.93;100063.81;117395;1183;21858;-63
2021/08/19 02:31:22;;;;;;;10.20;7.10;;;;;;;23.18;64.02;100058.83;117322;1184;21857;-68
2021/08/19 02:33:51;;;;;;;8.60;6.80;;;;;;;23.16;64.08;100057.57;117458;1183;23474;-64
2021/08/19 02:36:19;;;;;;;9.80;6.60;;;;;;;23.12;64.00;100062.45;117675;1182;21854;-63
2021/08/19 02:38:47;;;;;;;9.00;7.10;;;;;;;23.09;64.16;100054.83;117489;1179;23002;-69
2021/08/19 02:41:15;;;;;;;9.80;6.90;;;;;;;23.05;64.34;100052.27;117344;1175;21896;-69
2021/08/19 02:43:45;;;;;;;9.90;6.60;;;;;;;22.98;64.52;100050.23;117455;1184;23461;-69
2021/08/19 02:46:13;;;;;;;8.80;6.70;;;;;;;22.93;64.85;100051.84;117345;1185;23473;-63
2021/08/19 02:48:42;;;;;;;11.50;6.80;;;;;;;22.91;64.94;100062.50;117410;1182;22925;-69
2021/08/19 02:51:10;;;;;;;8.40;6.70;;;;;;;22.91;65.03;100082.37;117340;1183;21845;-62
2021/08/19 02:53:38;;;;;;;8.80;6.60;;;;;;;22.88;65.09;100097.76;117367;1182;23454;-69
2021/08/19 02:56:07;;;;;;;8.30;6.90;;;;;;;22.86;64.99;100110.73;117423;1183;22272;-69
2021/08/19 02:58:35;;;;;;;10.30;6.60;;;;;;;22.79;65.39;100123.38;117493;1182;23474;-69
2021/08/19 03:01:03;;;;;;;8.80;6.40;;;;;;;22.74;65.62;100135.34;117422;1182;23455;-68
2021/08/19 03:03:34;;;;;;;8.00;6.50;;;;;;;22.72;65.68;100136.23;117411;1182;21854;-69
2021/08/19 03:06:14;;;;;;;7.80;6.00;;;;;;;22.70;65.82;100124.51;117413;1185;23445;-69
2021/08/19 03:08:42;;;;;;;7.90;6.20;;;;;;;22.70;65.88;100122.80;117515;1183;22985;-69
2021/08/19 03:11:30;;;;;;;9.00;6.10;;;;;;;22.66;66.08;100123.20;117368;1184;21867;-66
2021/08/19 03:13:59;;;;;;;8.70;6.90;;;;;;;22.63;65.98;100134.52;117449;1184;22869;-63
2021/08/19 03:16:27;;;;;;;8.70;5.60;;;;;;;22.58;66.11;100148.58;117379;1182;23487;-64
2021/08/19 03:18:56;;;;;;;15.30;7.00;;;;;;;22.54;66.30;100158.13;117513;1182;23458;-63
2021/08/19 03:21:25;;;;;;;9.60;6.00;;;;;;;22.54;66.28;100161.34;117473;1185;23447;-64
2021/08/19 03:23:54;;;;;;;11.00;6.30;;;;;;;22.56;66.23;100163.01;117471;1179;24167;-68
2021/08/19 03:26:22;;;;;;;9.10;6.30;;;;;;;22.56;66.28;100166.42;117452;1184;23474;-64
2021/08/19 03:28:51;;;;;;;7.90;6.00;;;;;;;22.54;66.42;100168.11;117441;1183;23079;-65
2021/08/19 03:31:39;;;;;;;9.00;5.80;;;;;;;22.53;66.31;100172.70;117401;1184;21875;-64
2021/08/19 03:34:08;;;;;;;7.70;5.50;;;;;;;22.50;66.56;100170.77;117464;1184;21888;-69
2021/08/19 03:36:37;;;;;;;9.90;5.30;;;;;;;22.47;66.58;100168.40;117367;1183;22829;-69
2021/08/19 03:39:05;;;;;;;9.10;5.40;;;;;;;22.45;66.57;100166.08;117383;1184;23439;-69
2021/08/19 03:41:34;;;;;;;7.10;5.40;;;;;;;22.43;66.63;100162.80;117382;1185;23177;-69
2021/08/19 03:44:04;;;;;;;10.40;5.70;;;;;;;22.41;66.65;100160.20;117461;1175;21848;-69
2021/08/19 03:46:32;;;;;;;9.50;6.20;;;;;;;22.41;66.61;100151.30;117493;1182;21896;-76
2021/08/19 03:49:01;;;;;;;6.20;5.00;;;;;;;22.40;66.74;100142.95;117458;1185;23585;-63
2021/08/19 03:51:30;;;;;;;10.70;5.90;;;;;;;22.38;66.84;100134.46;117436;1185;23470;-70
2021/08/19 03:53:59;;;;;;;9.10;5.80;;;;;;;22.36;66.86;100123.54;117471;1182;23473;-69
2021/08/19 03:56:29;;;;;;;7.40;4.90;;;;;;;22.34;66.86;100108.82;117433;1183;22065;-63
2021/08/19 03:58:57;;;;;;;6.10;5.00;;;;;;;22.28;67.00;100101.52;117411;1184;21874;-68
2021/08/19 04:01:25;;;;;;;8.50;5.10;;;;;;;22.30;66.85;100107.45;117373;1185;21854;-68
2021/08/19 04:03:54;;;;;;;7.90;5.30;;;;;;;22.32;66.68;100113.98;117474;1183;23478;-68
2021/08/19 04:06:22;;;;;;;7.50;5.50;;;;;;;22.26;66.82;100119.18;117479;1185;22389;-64
2021/08/19 04:08:52;;;;;;;;;;;;;;;22.24;66.83;100130.42;117409;1185;23534;-69
2021/08/19 04:11:22;;;;;;;6.40;4.50;;;;;;;22.20;66.96;100136.17;117600;1182;21884;-62
2021/08/19 04:14:09;;;;;;;10.10;5.10;;;;;;;22.19;67.07;100130.37;117437;1183;23474;-76
2021/08/19 04:16:37;;;;;;;10.30;4.60;;;;;;;22.19;67.05;100118.55;117371;1182;23477;-69
2021/08/19 04:19:05;;;;;;;7.60;4.80;;;;;;;22.21;67.01;100114.66;117336;1185;21851;-72
2021/08/19 04:21:34;;;;;;;8.10;5.30;;;;;;;22.23;66.72;100119.77;117514;1175;21867;-69
2021/08/19 04:24:22;;;;;;;7.80;5.00;;;;;;;22.25;66.77;100138.58;117359;1184;23554;-63
2021/08/19 04:26:50;;;;;;;8.30;5.20;;;;;;;22.24;66.90;100156.52;117435;1185;21857;-68
2021/08/19 04:29:18;;;;;;;7.70;5.40;;;;;;;22.19;66.90;100175.21;117440;1182;21857;-68
2021/08/19 04:31:47;;;;;;;7.20;4.80;;;;;;;22.15;66.99;100195.15;117447;1185;21858;-69
2021/08/19 04:34:15;;;;;;;6.30;5.00;;;;;;;22.05;67.34;100204.66;117409;1182;22655;-64
2021/08/19 04:36:44;;;;;;;7.90;5.40;;;;;;;22.06;67.30;100191.06;117342;1183;23469;-64
2021/08/19 04:39:13;;;;;;;8.10;5.80;;;;;;;22.11;67.27;100158.02;117371;1184;22938;-64
2021/08/19 04:41:42;;;;;;;6.90;5.90;;;;;;;22.15;67.35;100154.92;117319;1182;21858;-63
2021/08/19 04:44:11;;;;;;;8.20;5.90;;;;;;;22.16;67.42;100163.25;117435;1185;23506;-70
2021/08/19 04:46:39;;;;;;;6.60;5.60;;;;;;;22.17;67.44;100165.33;117406;1183;21858;-69
2021/08/19 04:49:07;;;;;;;8.50;6.20;;;;;;;22.18;67.43;100160.59;117439;1183;22656;-62
2021/08/19 04:51:36;;;;;;;8.80;5.10;;;;;;;22.21;67.54;100152.39;117391;1185;23478;-68
2021/08/19 04:54:05;;;;;;;6.20;4.80;;;;;;;22.23;67.54;100139.20;117340;1182;21863;-68
2021/08/19 04:56:37;;;;;;;6.20;5.10;;;;;;;22.27;67.60;100124.86;117360;1182;23452;-72
2021/08/19 04:59:07;;;;;;;8.30;5.50;;;;;;;22.28;67.62;100117.77;117418;1185;21854;-68
2021/08/19 05:01:36;;;;;;;8.00;5.30;;;;;;;22.30;67.73;100127.70;117463;1183;21883;-70
2021/08/19 05:04:05;;;;;;;7.80;5.50;;;;;;;22.31;67.82;100141.37;117414;1184;21892;-72
2021/08/19 05:06:33;;;;;;;7.20;5.70;;;;;;;22.36;67.94;100138.02;117399;1182;24169;-61
2021/08/19 05:09:04;;;;;;;7.50;5.40;;;;;;;22.42;67.91;100138.15;117400;1186;22134;-62
2021/08/19 05:11:33;;;;;;;9.00;5.80;;;;;;;22.46;67.77;100146.38;117389;1185;22808;-66
2021/08/19 05:14:03;;;;;;;8.80;6.00;;;;;;;22.50;67.72;100154.70;117457;1182;22906;-66
2021/08/19 05:16:32;;;;;;;6.40;5.40;;;;;;;22.52;67.77;100160.25;117476;1182;21864;-66
2021/08/19 05:19:10;;;;;;;9.60;7.10;;;;;;;22.54;67.64;100164.20;117515;1185;23453;-62
2021/08/19 05:21:40;;;;;;;8.20;6.30;;;;;;;22.55;67.78;100161.14;117431;1185;23452;-66
2021/08/19 05:24:08;;;;;;;7.70;5.90;;;;;;;22.58;67.59;100164.34;117421;1182;21924;-65
2021/08/19 05:26:48;;;;;;;;;;;;;;;22.57;67.55;100166.02;117466;1185;23464;-62
2021/08/19 05:29:17;;;;;;;6.70;5.10;;;;;;;22.56;67.65;100163.91;117374;1183;21863;-67
2021/08/19 05:31:46;;;;;;;7.00;5.90;;;;;;;22.58;67.67;100162.89;117339;1185;23536;-65
2021/08/19 05:34:14;;;;;;;6.70;5.20;;;;;;;22.58;67.48;100169.88;117466;1183;23104;-65
2021/08/19 05:36:43;;;;;;;6.70;5.20;;;;;;;22.59;67.39;100172.29;117496;1184;23529;-65
2021/08/19 05:39:11;;;;;;;8.60;6.10;;;;;;;22.61;67.30;100165.90;117426;1182;23360;-65
2021/08/19 05:41:39;;;;;;;5.80;5.10;;;;;;;22.68;67.33;100163.10;117368;1182;21887;-64
2021/08/19 05:44:07;;;;;;;6.40;5.00;;;;;;;22.70;67.17;100158.37;117369;1182;21854;-65
2021/08/19 05:46:38;;;;;;;5.60;5.00;;;;;;;22.71;67.19;100156.84;117463;1185;23477;-62
2021/08/19 05:49:09;;;;;;;7.00;5.20;;;;;;;22.74;66.97;100162.00;117353;1185;21858;-66
2021/08/19 05:51:57;;;;;;;7.00;6.00;;;;;;;22.74;67.03;100164.69;117403;1185;21986;-66
2021/08/19 05:54:26;;;;;;;8.70;5.40;;;;;;;22.75;67.04;100167.34;117499;1182;23451;-64
2021/08/19 05:56:54;;;;;;;9.30;5.50;;;;;;;22.76;67.11;100169.79;117342;1176;21858;-65
2021/08/19 05:59:22;;;;;;;9.20;5.90;;;;;;;22.77;66.95;100168.10;117359;1182;21864;-63
2021/08/19 06:01:51;;;;;;;5.90;4.80;;;;;;;22.79;67.03;100166.67;117469;1184;23477;-65
2021/08/19 06:04:19;;;;;;;7.70;4.60;;;;;;;22.81;67.04;100161.40;117347;1182;21837;-61
2021/08/19 06:06:48;;;;;;;5.60;4.60;;;;;;;22.82;67.17;100154.00;117521;1182;21827;-61
2021/08/19 06:09:19;;;;;;;4.90;4.40;;;;;;;22.85;67.10;100151.41;117349;1183;23544;-61
2021/08/19 06:11:59;;;;;;;6.50;5.00;;;;;;;22.90;67.07;100148.80;117288;1183;23461;-65
2021/08/19 06:14:28;;;;;;;5.30;4.50;;;;;;;22.94;67.09;100151.20;117445;1184;23471;-64
2021/08/19 06:16:57;;;;;;;5.70;4.40;;;;;;;22.96;67.08;100155.89;117342;1185;22844;-63
2021/08/19 06:19:26;;;;;;;5.30;4.40;;;;;;;22.99;67.13;100155.16;117385;1185;21857;-64
2021/08/19 06:21:54;;;;;;;7.20;4.10;;;;;;;23.04;67.15;100150.55;117339;1182;22830;-62
2021/08/19 06:24:42;;;;;;;5.10;4.40;;;;;;;23.08;67.16;100146.73;117416;1185;22905;-63
2021/08/19 06:27:11;;;;;;;5.60;4.50;;;;;;;23.09;67.12;100148.20;117444;1182;23576;-64
2021/08/19 06:29:59;;;;;;;6.40;4.40;;;;;;;23.13;67.13;100148.65;117394;1185;22164;-63
2021/08/19 06:32:27;;;;;;;6.20;4.20;;;;;;;23.18;66.93;100155.70;117448;1184;23452;-62
2021/08/19 06:34:56;;;;;;;5.60;4.00;;;;;;;23.21;66.94;100156.02;117477;1179;21895;-64
2021/08/19 06:37:25;;;;;;;4.80;4.10;;;;;;;23.21;66.65;100152.63;117405;1179;23580;-65
2021/08/19 06:39:53;;;;;;;5.10;4.50;;;;;;;23.20;66.61;100155.02;117413;1183;22985;-64
2021/08/19 06:42:21;;;;;;;6.00;4.10;;;;;;;23.21;66.56;100152.41;117397;1183;22621;-64
2021/08/19 06:44:57;;;;;;;4.80;4.20;;;;;;;23.23;66.45;100152.64;117456;1185;23454;-65
2021/08/19 06:47:26;;;;;;;6.00;4.70;;;;;;;23.22;66.36;100144.48;117385;1183;23908;-64
2021/08/19 06:49:54;;;;;;;5.80;4.50;;;;;;;23.23;66.32;100141.56;117364;1182;21862;-63
2021/08/19 06:52:44;;;;;;;5.80;4.40;;;;;;;23.27;66.33;100139.54;117416;1185;21886;-60
2021/08/19 06:55:13;;;;;;;7.90;4.70;;;;;;;23.32;66.25;100141.89;117432;1182;21855;-63
2021/08/19 06:57:41;;;;;;;7.30;5.40;;;;;;;23.39;66.38;100141.90;117460;1182;23588;-63
2021/08/19 07:00:10;;;;;;;6.80;5.00;;;;;;;23.50;66.39;100136.70;117531;1184;23362;-63
2021/08/19 07:02:38;;;;;;;6.40;5.30;;;;;;;23.57;66.13;100139.60;117533;1185;21858;-65
2021/08/19 07:05:07;;;;;;;5.90;5.20;;;;;;;23.62;66.01;100142.67;117460;1182;23454;-64
2021/08/19 07:07:36;;;;;;;8.40;5.80;;;;;;;23.64;65.76;100140.35;117526;1184;22306;-64
2021/08/19 07:10:06;;;;;;;5.60;5.00;;;;;;;23.62;65.30;100140.08;117422;1183;23445;-65
2021/08/19 07:12:35;;;;;;;;;;;;;;;23.58;65.04;100134.85;117387;1185;21839;-63
2021/08/19 07:15:05;;;;;;;6.20;5.60;;;;;;;23.51;65.00;100132.64;117430;1182;23215;-62
2021/08/19 07:17:33;;;;;;;6.20;5.50;;;;;;;23.46;65.19;100137.27;117335;1185;21870;-64
2021/08/19 07:20:02;;;;;;;6.00;5.40;;;;;;;23.46;65.24;100139.06;117407;1183;21901;-65
2021/08/19 07:22:31;;;;;;;6.00;5.40;;;;;;;23.52;65.29;100141.00;117393;1182;21918;-63
2021/08/19 07:24:59;;;;;;;6.90;6.20;;;;;;;23.60;65.18;100144.42;117362;1182;23484;-64
2021/08/19 07:27:28;;;;;;;7.20;6.40;;;;;;;23.66;65.24;100146.46;117400;1185;21855;-65
2021/08/19 07:29:56;;;;;;;6.80;6.10;;;;;;;23.72;65.18;100149.09;117382;1181;21861;-64
2021/08/19 07:32:25;;;;;;;10.50;7.30;;;;;;;23.77;64.82;100147.84;117377;1185;21866;-65
2021/08/19 07:34:53;;;;;;;7.10;6.40;;;;;;;23.84;64.49;100144.67;117473;1179;23442;-65
2021/08/19 07:37:22;;;;;;;7.40;6.70;;;;;;;23.89;64.34;100147.13;117465;1181;23456;-64
2021/08/19 07:39:51;;;;;;;7.60;6.50;;;;;;;23.96;64.25;100147.37;117531;1185;21863;-60
2021/08/19 07:42:19;;;;;;;7.30;6.50;;;;;;;24.04;63.94;100143.97;117398;1184;23478;-65
2021/08/19 07:44:48;;;;;;;7.10;6.30;;;;;;;24.13;63.78;100144.79;117458;1184;23478;-65
2021/08/19 07:47:16;;;;;;;7.50;5.70;;;;;;;24.23;63.21;100140.98;117303;1181;21877;-64
2021/08/19 07:49:45;;;;;;;10.10;6.40;;;;;;;24.28;62.96;100143.99;117422;1179;23701;-63
2021/08/19 07:52:13;;;;;;;7.90;6.80;;;;;;;24.32;62.88;100147.13;117386;1184;21870;-63
2021/08/19 07:54:41;;;;;;;6.90;6.10;;;;;;;24.37;62.47;100153.08;117458;1184;21859;-64
2021/08/19 07:57:10;;;;;;;7.20;6.40;;;;;;;24.39;61.99;100155.08;117419;1184;23362;-64
2021/08/19 07:59:38;;;;;;;7.30;6.60;;;;;;;24.35;61.95;100156.23;117396;1182;23452;-62
2021/08/19 08:02:21;;;;;;;7.50;6.80;;;;;;;24.32;61.96;100160.76;117329;1182;23541;-62
2021/08/19 08:04:50;;;;;;;8.90;6.80;;;;;;;24.33;61.77;100161.20;117436;1185;22085;-64
2021/08/19 08:07:19;;;;;;;8.60;7.10;;;;;;;24.37;61.66;100166.66;117362;1182;23449;-64
2021/08/19 08:09:47;;;;;;;8.10;7.30;;;;;;;24.42;61.34;100168.67;117403;1182;21860;-62
2021/08/19 08:12:18;;;;;;;;;;;;;;;24.45;60.95;100170.75;117438;1182;22960;-60
2021/08/19 08:14:47;;;;;;;7.90;7.10;;;;;;;24.44;61.09;100176.01;117348;1182;22629;-61
2021/08/19 08:17:17;;;;;;;8.90;7.10;;;;;;;24.46;61.03;100180.73;117393;1182;23563;-61
2021/08/19 08:19:47;;;;;;;8.50;7.60;;;;;;;24.48;61.08;100186.11;117361;1184;23579;-64
2021/08/19 08:22:18;;;;;;;8.60;7.40;;;;;;;24.48;60.83;100185.22;117358;1185;22323;-64
2021/08/19 08:24:46;;;;;;;9.70;8.10;;;;;;;24.52;60.67;100186.06;117361;1182;23688;-63
2021/08/19 08:27:15;;;;;;;8.80;7.50;;;;;;;24.57;60.20;100184.23;117410;1185;23553;-60
2021/08/19 08:29:44;;;;;;;8.20;7.50;;;;;;;24.57;59.95;100183.80;117412;1182;22934;-61
2021/08/19 08:32:12;;;;;;;7.80;7.10;;;;;;;24.51;59.89;100186.27;117337;1181;21853;-61
2021/08/19 08:34:41;;;;;;;7.30;6.60;;;;;;;24.43;60.04;100186.53;117418;1182;23861;-61
2021/08/19 08:37:10;;;;;;;7.40;6.60;;;;;;;24.41;60.16;100181.23;117402;1185;21857;-61
2021/08/19 08:39:39;;;;;;;7.60;6.80;;;;;;;24.48;59.76;100178.61;117326;1182;22915;-61
2021/08/19 08:42:10;;;;;;;7.90;7.00;;;;;;;24.52;59.55;100177.40;117390;1185;24160;-61
2021/08/19 08:44:39;;;;;;;8.20;7.30;;;;;;;24.51;59.41;100174.42;117424;1182;22939;-61
2021/08/19 08:47:13;;;;;;;7.00;6.30;;;;;;;24.52;59.74;100171.54;117344;1182;23471;-63
2021/08/19 08:49:41;;;;;;;8.00;7.20;;;;;;;24.55;59.84;100168.73;117292;1185;21976;-62
2021/08/19 08:52:09;;;;;;;7.30;6.60;;;;;;;24.64;59.79;100167.56;117358;1184;23576;-61
2021/08/19 08:54:38;;;;;;;7.60;6.60;;;;;;;24.72;59.46;100166.27;119118;1182;23427;-60
2021/08/19 08:57:07;;;;;;;7.80;7.10;;;;;;;24.80;59.08;100167.63;118118;1183;23475;-64
2021/08/19 08:59:36;;;;;;;7.60;6.80;;;;;;;24.88;58.89;100164.52;117381;1185;23441;-61
2021/08/19 09:02:04;;;;;;;8.10;6.30;;;;;;;24.94;58.52;100166.64;117372;1185;21861;-64
2021/08/19 09:04:32;;;;;;;7.40;6.60;;;;;;;24.96;58.57;100170.02;117411;1182;23553;-61
2021/08/19 09:07:04;;;;;;;7.10;6.40;;;;;;;25.02;58.52;100166.55;117470;1181;23576;-60
2021/08/19 09:09:53;;;;;;;6.40;5.80;;;;;;;25.09;58.39;100163.66;117397;1184;21855;-69
2021/08/19 09:12:22;;;;;;;7.20;6.50;;;;;;;25.23;57.89;100161.36;117426;1179;23017;-60
2021/08/19 09:14:53;;;;;;;8.30;6.80;;;;;;;25.49;57.33;100155.77;117384;1183;22931;-64
2021/08/19 09:17:43;;;;;;;8.40;6.90;;;;;;;25.66;56.95;100157.81;117563;1185;22105;-62
2021/08/19 09:20:12;;;;;;;7.70;6.30;;;;;;;25.65;56.63;100162.19;117454;1185;23923;-61
2021/08/19 09:23:00;;;;;;;7.50;6.80;;;;;;;25.59;56.62;100160.91;117442;1179;21940;-61
2021/08/19 09:25:31;;;;;;;8.70;7.10;;;;;;;25.52;56.44;100161.64;117488;1180;21876;-60
2021/08/19 09:28:28;;;;;;;7.20;6.50;;;;;;;25.46;56.17;100161.08;117326;1184;22153;-64
2021/08/19 09:31:08;;;;;;;8.50;6.70;;;;;;;25.43;56.55;100158.18;117456;1182;23456;-60
2021/08/19 09:33:40;;;;;;;7.60;6.50;;;;;;;25.43;56.68;100159.30;117431;1183;23628;-64
2021/08/19 09:36:08;;;;;;;7.50;5.80;;;;;;;25.45;56.59;100163.60;117516;1183;21854;-57
2021/08/19 09:38:40;;;;;;;7.10;6.20;;;;;;;25.53;56.30;100163.39;117385;1185;21999;-60
2021/08/19 09:41:13;;;;;;;7.00;5.60;;;;;;;25.60;56.20;100165.73;117396;1182;23560;-62
2021/08/19 09:43:48;;;;;;;6.50;5.50;;;;;;;25.71;56.27;100170.19;117387;1185;23470;-64
2021/08/19 09:46:35;;;;;;;5.50;4.70;;;;;;;25.77;55.72;100172.45;117371;1184;21867;-63
2021/08/19 09:49:28;;;;;;;5.10;4.60;;;;;;;25.85;55.37;100173.08;117429;1185;21855;-62
2021/08/19 09:52:08;;;;;;;5.60;4.30;;;;;;;25.90;54.96;100169.79;117351;1185;21855;-61
2021/08/19 09:54:38;;;;;;;5.40;4.80;;;;;;;25.97;55.05;100173.02;117439;1183;22928;-62
2021/08/19 09:57:07;;;;;;;6.20;4.50;;;;;;;26.11;54.97;100178.15;117447;1182;24168;-64
2021/08/19 09:59:37;;;;;;;4.90;4.20;;;;;;;26.20;54.97;100179.79;117454;1184;22546;-60
2021/08/19 10:02:06;;;;;;;5.10;4.30;;;;;;;26.32;54.48;100178.52;117457;1181;23649;-61
2021/08/19 10:04:36;;;;;;;5.70;4.20;;;;;;;26.35;53.90;100178.27;117388;1183;21932;-64
2021/08/19 10:07:04;;;;;;;4.90;4.40;;;;;;;26.24;53.94;100179.10;117329;1186;22967;-66
2021/08/19 10:09:33;;;;;;;5.40;4.30;;;;;;;26.21;54.23;100180.10;117368;1185;23809;-65
2021/08/19 10:12:02;;;;;;;6.00;4.30;;;;;;;26.34;54.49;100178.14;117400;1183;23554;-64
2021/08/19 10:14:30;;;;;;;4.80;4.30;;;;;;;26.51;54.22;100175.85;117381;1184;21858;-64
2021/08/19 10:16:58;;;;;;;4.40;3.70;;;;;;;26.64;53.48;100175.88;117458;1182;22650;-62
2021/08/19 10:19:36;;;;;;;4.60;3.60;;;;;;;26.73;52.89;100173.20;117608;1182;23475;-64
2021/08/19 10:22:15;;;;;;;7.00;4.10;;;;;;;26.80;52.91;100174.02;117288;1181;23592;-60
2021/08/19 10:24:59;;;;;;;5.10;3.50;;;;;;;26.89;52.63;100181.72;117445;1182;23478;-60
2021/08/19 10:27:28;;;;;;;4.10;3.70;;;;;;;26.94;52.06;100184.73;117373;1182;22998;-66
2021/08/19 10:29:59;;;;;;;5.50;3.90;;;;;;;26.95;51.92;100181.80;117399;1184;21859;-66
2021/08/19 10:32:40;;;;;;;6.30;4.60;;;;;;;26.90;51.90;100183.15;117398;1180;23567;-66
2021/08/19 10:35:13;;;;;;;4.50;3.90;;;;;;;26.84;52.13;100187.90;117289;1185;21858;-66
2021/08/19 10:37:48;;;;;;;6.70;4.60;;;;;;;26.78;51.95;100186.94;117343;1185;23564;-66
2021/08/19 10:40:28;;;;;;;4.80;3.90;;;;;;;26.78;52.13;100184.95;117351;1183;23571;-66
2021/08/19 10:43:20;;;;;;;4.90;4.00;;;;;;;26.80;52.01;100186.45;117352;1183;21858;-67
2021/08/19 10:45:49;;;;;;;4.50;3.60;;;;;;;26.83;51.88;100188.52;117488;1182;22648;-65
2021/08/19 10:48:21;;;;;;;4.40;4.00;;;;;;;26.85;51.80;100188.54;117208;1178;23479;-64
2021/08/19 10:50:49;;;;;;;5.50;4.00;;;;;;;26.89;51.78;100189.57;117325;1185;22931;-67
2021/08/19 10:53:37;;;;;;;5.10;3.90;;;;;;;26.88;51.55;100188.19;117342;1184;23616;-68
2021/08/19 10:56:43;;;;;;;4.70;3.90;;;;;;;26.86;51.50;100185.80;117222;1184;23701;-66
2021/08/19 10:59:34;;;;;;;4.10;3.70;;;;;;;26.90;51.76;100188.70;117281;1185;24750;-66
2021/08/19 11:02:03;;;;;;;4.50;3.80;;;;;;;26.98;51.74;100192.88;117300;1181;23582;-67
2021/08/19 11:04:42;;;;;;;8.70;4.00;;;;;;;27.03;51.47;100189.62;117381;1182;22926;-66
2021/08/19 11:07:10;;;;;;;5.00;4.30;;;;;;;27.08;51.41;100188.09;117521;1183;22157;-66
2021/08/19 11:09:40;;;;;;;;;;;;;;;27.26;50.91;100194.11;117385;1182;23579;-66
2021/08/19 11:12:09;;;;;;;5.00;4.10;;;;;;;27.20;50.93;100192.83;117385;1180;21988;-64
2021/08/19 11:14:39;;;;;;;4.90;4.10;;;;;;;27.24;50.82;100187.60;117348;1182;21867;-66
2021/08/19 11:17:15;;;;;;;5.30;4.30;;;;;;;27.31;50.63;100184.02;117382;1185;23544;-67
2021/08/19 11:20:22;;;;;;;4.60;3.90;;;;;;;27.34;50.49;100184.82;117380;1182;21863;-66
2021/08/19 11:23:05;;;;;;;4.60;4.20;;;;;;;27.29;50.44;100180.67;117384;1184;22925;-65
2021/08/19 11:25:41;;;;;;;4.50;4.00;;;;;;;27.25;50.29;100175.80;117445;1182;22839;-64
2021/08/19 11:28:15;;;;;;;4.30;3.70;;;;;;;27.25;50.10;100172.63;117334;1184;23465;-66
2021/08/19 11:30:48;;;;;;;5.20;4.10;;;;;;;27.22;49.85;100172.30;117482;1184;22925;-66
2021/08/19 11:33:18;;;;;;;5.70;4.40;;;;;;;27.25;50.02;100167.71;117399;1182;23455;-66
2021/08/19 11:35:51;;;;;;;5.80;4.60;;;;;;;27.29;50.13;100164.46;117423;1184;21858;-65
2021/08/19 11:38:23;;;;;;;5.40;3.90;;;;;;;27.30;49.99;100166.01;117395;1183;22105;-65